Data for 08/07/2005

Time Sea-Level Adjusted Pressure Absolute Pressure Temperature Relative Humidity Dew Point   
(mb) (inHg) (mb) (inHg) (C) (F) (%) (C) (F)
00:05 1021 30.15 850 25.1 23 73.4 32 5.6 42
00:10 1021 30.15 850 25.1 22.9 73.2 32 5.6 42
00:15 1021 30.15 850 25.1 22.9 73.3 32 5.7 42.3
00:20 1021 30.15 850 25.1 22.7 72.9 33 5.7 42.3
00:25 1021 30.15 850 25.1 22.5 72.5 34 6 42.8
00:30 1021 30.15 850 25.1 22.1 71.7 34 5.8 42.5
00:35 1021 30.15 850 25.1 22.1 71.8 33 5.4 41.7
00:40 1021 30.15 850 25.1 22.2 72 34 5.7 42.2
00:45 1021 30.15 850 25.1 22 71.5 35 6.1 43
00:50 1021 30.15 850 25.1 21.6 70.8 35 5.7 42.3
00:55 1021 30.15 850 25.1 21.5 70.7 36 6 42.7
01:00 1021 30.15 850 25.1 21.3 70.3 37 6.3 43.3
01:05 1021 30.15 850 25.1 21.3 70.3 36 5.7 42.3
01:10 1021 30.15 850 25.1 21.4 70.6 35 5.6 42.1
01:15 1021 30.15 850 25.1 21.5 70.7 35 5.7 42.2
01:20 1021 30.15 850 25.1 21.5 70.7 35 5.7 42.3
01:25 1021 30.15 850 25.1 21.3 70.4 37 6 42.9
01:30 1021 30.15 850 25.1 21.2 70.1 37 6.1 42.9
01:35 1021 30.15 850 25.1 21 69.8 37 5.9 42.6
01:40 1021 30.15 850 25.1 20.9 69.6 37 6 42.8
01:45 1021 30.15 850 25.1 20.5 68.9 39 6.2 43.2
01:50 1020 30.12 850 25.1 20 68 40 6.1 43
01:55 1020 30.12 850 25.1 20 68 40 6 42.8
02:00 1020 30.12 850 25.1 20.1 68.1 39 5.7 42.2
02:05 1020 30.12 850 25.1 20.2 68.3 38 5.7 42.3
02:10 1020 30.12 850 25.1 20.1 68.1 39 5.9 42.5
02:15 1020 30.12 850 25.1 19.6 67.3 41 6 42.8
02:20 1020 30.12 850 25.1 19.3 66.8 41 5.8 42.4
02:25 1020 30.12 850 25.1 19.3 66.8 41 5.7 42.3
02:30 1020 30.12 850 25.1 19.2 66.6 41 5.7 42.3
02:35 1020 30.12 850 25.1 19.1 66.5 40 5.5 41.9
02:40 1020 30.12 850 25.1 19.2 66.5 40 5.2 41.4
02:45 1020 30.12 850 25.1 19.5 67 39 5.2 41.3
02:50 1020 30.12 849 25.07 19.6 67.3 38 5 41
02:55 1020 30.12 849 25.07 19.4 67 38 5 41
03:00 1020 30.12 849 25.07 19.3 66.7 39 5 41.1
03:05 1020 30.12 849 25.07 19 66.1 41 5.6 42
03:10 1020 30.12 849 25.07 18.7 65.7 40 5.1 41.2
03:15 1020 30.12 849 25.07 18.6 65.5 42 5.5 41.9
03:20 1020 30.12 849 25.07 18.6 65.4 40 4.7 40.5
03:25 1020 30.12 849 25.07 18.9 66 41 5.4 41.7
03:30 1020 30.12 849 25.07 18.8 65.8 42 5.6 42.1
03:35 1020 30.12 849 25.07 18.7 65.7 41 5.5 41.9
03:40 1020 30.12 849 25.07 18.7 65.7 42 5.6 42.1
03:45 1020 30.12 849 25.07 18.7 65.6 43 6 42.9
03:50 1020 30.12 849 25.07 18.4 65.1 45 6.4 43.4
03:55 1020 30.12 849 25.07 17.9 64.2 46 6.3 43.3
04:00 1020 30.12 849 25.07 17.8 64 47 6.3 43.4
04:05 1020 30.12 849 25.07 17.7 63.9 46 6 42.8
04:10 1020 30.12 849 25.07 17.9 64.2 45 6 42.9
04:15 1020 30.12 849 25.07 18.2 64.7 42 5.2 41.3
04:20 1020 30.12 849 25.07 18.8 65.8 41 5.3 41.5
04:25 1020 30.12 849 25.07 18.8 65.9 41 5.4 41.8
04:30 1020 30.12 850 25.1 18.9 65.9 40 5.1 41.1
04:35 1020 30.12 850 25.1 19 66.1 39 4.9 40.9
04:40 1020 30.12 850 25.1 18.9 66 39 4.9 40.8
04:45 1020 30.12 850 25.1 18.8 65.9 40 5 41
04:50 1020 30.12 850 25.1 18.7 65.6 40 4.8 40.7
04:55 1020 30.12 850 25.1 18.7 65.6 40 4.8 40.7
05:00 1020 30.12 850 25.1 18.7 65.7 41 5.2 41.4
05:05 1020 30.12 850 25.1 18.6 65.4 42 5.5 41.9
05:10 1020 30.12 850 25.1 18.1 64.6 43 5.5 41.9
05:15 1020 30.12 850 25.1 17.8 64 45 5.6 42.1
05:20 1020 30.12 850 25.1 17.5 63.6 45 5.6 42
05:25 1020 30.12 850 25.1 17.5 63.5 45 5.6 42.1
05:30 1021 30.15 850 25.1 17.4 63.4 45 5.4 41.8
05:35 1021 30.15 850 25.1 17.4 63.3 45 5.3 41.6
05:40 1021 30.15 850 25.1 17.3 63.1 46 5.6 42.1
05:45 1021 30.15 850 25.1 17 62.6 47 5.6 42.1
05:50 1021 30.15 850 25.1 16.8 62.3 48 5.7 42.3
05:55 1021 30.15 850 25.1 16.9 62.4 47 5.6 42.1
06:00 1021 30.15 850 25.1 16.9 62.5 46 5.4 41.8
06:05 1021 30.15 850 25.1 17.1 62.8 45 5.3 41.6
06:10 1021 30.15 850 25.1 17.3 63.1 45 5.4 41.8
06:15 1021 30.15 850 25.1 17.1 62.9 46 5.5 42
06:20 1021 30.15 850 25.1 17 62.6 46 5.5 41.9
06:25 1021 30.15 850 25.1 16.6 61.8 47 5.3 41.5
06:30 1021 30.15 850 25.1 16.4 61.6 46 4.9 40.9
06:35 1021 30.15 850 25.1 16.6 61.8 46 4.8 40.7
06:40 1021 30.15 850 25.1 16.9 62.5 44 4.7 40.5
06:45 1021 30.15 850 25.1 17.4 63.2 43 4.8 40.7
06:50 1021 30.15 850 25.1 17.5 63.5 43 5 41.1
06:55 1021 30.15 850 25.1 17.4 63.3 44 5.1 41.2
07:00 1021 30.15 850 25.1 16.9 62.5 47 5.6 42.2
07:05 1021 30.15 850 25.1 16.5 61.7 48 5.7 42.2
07:10 1021 30.15 850 25.1 16.3 61.4 49 5.8 42.4
07:15 1021 30.15 850 25.1 16.6 61.8 48 5.6 42.1
07:20 1021 30.15 850 25.1 16.7 62.1 48 5.7 42.3
07:25 1021 30.15 850 25.1 16.6 61.8 46 5 41
07:30 1021 30.15 850 25.1 17.2 62.9 46 5.6 42
07:35 1021 30.15 850 25.1 17.3 63.1 46 5.6 42.1
07:40 1021 30.15 850 25.1 17.4 63.4 47 6.1 43.1
07:45 1021 30.15 850 25.1 17.6 63.7 45 5.8 42.4
07:50 1021 30.15 850 25.1 18.2 64.7 44 5.8 42.5
07:55 1021 30.15 850 25.1 18.6 65.5 43 5.9 42.6
08:00 1021 30.15 850 25.1 18.9 66 43 6 42.8
08:05 1021 30.15 850 25.1 19.1 66.4 44 6.5 43.8
08:10 1021 30.15 850 25.1 19.1 66.4 44 6.6 44
08:15 1021 30.15 850 25.1 19.4 67 45 7.2 44.9
08:20 1021 30.15 850 25.1 19.6 67.3 43 6.7 44.1
08:25 1021 30.15 850 25.1 20 68 41 6.4 43.6
08:30 1021 30.15 850 25.1 20.5 68.9 42 7.2 44.9
08:35 1021 30.15 850 25.1 21 69.7 38 6.4 43.5
08:40 1021 30.15 850 25.1 21.2 70.1 40 7.1 44.8
08:45 1021 30.15 850 25.1 21.5 70.8 39 7.3 45.2
08:50 1021 30.15 850 25.1 22 71.5 37 6.9 44.5
08:55 1021 30.15 850 25.1 22.1 71.8 35 5.9 42.7
09:00 1021 30.15 850 25.1 22.5 72.5 33 5.5 41.9
09:05 1021 30.15 850 25.1 23.2 73.8 32 6 42.8
09:10 1020 30.12 850 25.1 23.5 74.2 33 6.6 43.9
09:15 1020 30.12 850 25.1 23.7 74.7 33 6.6 43.9
09:20 1020 30.12 850 25.1 24.2 75.6 33 7.2 45
09:25 1020 30.12 850 25.1 23.8 74.8 36 7.8 46.1
09:30 1020 30.12 850 25.1 23.9 75 35 7.5 45.6
09:35 1021 30.15 850 25.1 24.3 75.7 33 7.4 45.3
09:40 1021 30.15 850 25.1 24.6 76.3 32 7.1 44.8
09:45 1021 30.15 850 25.1 25.5 77.9 31 7.2 45
09:50 1021 30.15 850 25.1 26.2 79.1 29 6.8 44.2
09:55 1021 30.15 850 25.1 26.6 80 30 7.7 45.9
10:00 1021 30.15 850 25.1 26 78.7 31 8 46.3
10:05 1021 30.15 850 25.1 25 76.9 32 7.5 45.6
10:10 1021 30.15 850 25.1 24.4 76 33 7.2 45
10:15 1021 30.15 850 25.1 23.6 74.5 40 9.6 49.2
10:20 1021 30.15 850 25.1 22.9 73.3 40 9 48.2
10:25 1021 30.15 850 25.1 22.7 72.8 39 8.2 46.7
10:30 1021 30.15 850 25.1 22.6 72.6 36 7.1 44.8
10:35 1021 30.15 850 25.1 22.9 73.2 35 7 44.6
10:40 1021 30.15 850 25.1 23.5 74.3 35 7.4 45.4
10:45 1021 30.15 850 25.1 23.8 74.9 33 6.8 44.2
10:50 1021 30.15 851 25.13 24.7 76.4 34 7.8 46.1
10:55 1021 30.15 851 25.13 25.2 77.3 35 8.7 47.7
11:00 1021 30.15 850 25.1 25.4 77.8 33 8.4 47.2
11:05 1021 30.15 850 25.1 25.4 77.7 34 8.8 47.8
11:10 1021 30.15 850 25.1 25.3 77.6 33 8.4 47.1
11:15 1021 30.15 850 25.1 25.3 77.6 31 7.3 45.1
11:20 1021 30.15 850 25.1 26.3 79.3 27 6.2 43.1
11:25 1021 30.15 850 25.1 27.4 81.2 27 7.1 44.8
11:30 1021 30.15 850 25.1 26.9 80.4 29 7.4 45.4
11:35 1021 30.15 850 25.1 26.8 80.2 29 7.6 45.8
11:40 1021 30.15 850 25.1 26.7 80 30 7.9 46.2
11:45 1021 30.15 850 25.1 26.4 79.5 29 7.2 44.9
11:50 1021 30.15 850 25.1 25.6 78 33 8.5 47.4
11:55 1021 30.15 850 25.1 25.1 77.1 34 8.2 46.8
12:00 1021 30.15 851 25.13 25.1 77.1 33 7.9 46.3
12:05 1021 30.15 851 25.13 24.6 76.2 35 8.3 46.9
12:10 1021 30.15 850 25.1 24.1 75.4 44 11.4 52.5
12:15 1021 30.15 850 25.1 23.6 74.5 41 9.8 49.6
12:20 1021 30.15 850 25.1 24 75.2 43 11 51.7
12:25 1021 30.15 850 25.1 24.3 75.8 41 10.3 50.6
12:30 1021 30.15 850 25.1 24.5 76 39 9.9 49.8
12:35 1021 30.15 850 25.1 24.5 76.1 35 8.4 47
12:40 1020 30.12 850 25.1 25.5 77.8 34 8.7 47.6
12:45 1020 30.12 850 25.1 26.6 79.9 28 7.1 44.8
12:50 1020 30.12 850 25.1 27.3 81.2 24 5.3 41.5
12:55 1020 30.12 850 25.1 28.2 82.8 24 6.3 43.3
13:00 1020 30.12 850 25.1 29.1 84.3 23 6.3 43.3
13:05 1020 30.12 850 25.1 29.3 84.7 24 6.7 44
13:10 1020 30.12 850 25.1 29.6 85.3 29 9.8 49.7
13:15 1020 30.12 850 25.1 28.7 83.7 30 9.8 49.7
13:20 1020 30.12 850 25.1 29.4 84.8 27 8.7 47.7
13:25 1020 30.12 849 25.07 30.1 86.2 25 8.3 46.9
13:30 1020 30.12 849 25.07 30.8 87.4 23 7.4 45.4
13:35 1020 30.12 849 25.07 31.1 88 26 9.8 49.6
13:40 1020 30.12 849 25.07 30.6 87.1 25 8.6 47.5
13:45 1020 30.12 849 25.07 30.9 87.6 24 8.2 46.8
13:50 1020 30.12 849 25.07 31.2 88.2 23 7.8 46
13:55 1020 30.12 849 25.07 31.1 88 22 7.4 45.2
14:00 1020 30.12 849 25.07 30.2 86.3 23 7.1 44.7
14:05 1020 30.12 849 25.07 30.8 87.4 21 6.6 43.8
14:10 1020 30.12 849 25.07 30.8 87.4 21 6.1 43
14:15 1020 30.12 849 25.07 30.8 87.5 19 5.2 41.3
14:20 1019 30.09 849 25.07 31 87.8 18 4.1 39.4
14:25 1019 30.09 848 25.04 31 87.9 19 5 41
14:30 1019 30.09 848 25.04 31.3 88.3 17 4 39.1
14:35 1019 30.09 848 25.04 32.1 89.7 16 3.5 38.4
14:40 1019 30.09 848 25.04 32.4 90.4 16 3.7 38.7
14:45 1019 30.09 848 25.04 32.7 90.9 15 3.4 38.1
14:50 1019 30.09 848 25.04 33.4 92.2 17 5.3 41.6
14:55 1019 30.09 848 25.04 33.8 92.8 15 4 39.2
15:00 1019 30.09 848 25.04 34 93.1 16 5 40.9
15:05 1019 30.09 848 25.04 33.2 91.7 18 6 42.8
15:10 1019 30.09 848 25.04 33 91.3 17 5 41
15:15 1019 30.09 848 25.04 32.9 91.3 18 5.6 42.1
15:20 1019 30.09 848 25.04 33.2 91.7 17 5.4 41.7
15:25 1019 30.09 848 25.04 33.2 91.7 16 4.3 39.8
15:30 1018 30.06 848 25.04 33.1 91.7 17 5.2 41.4
15:35 1018 30.06 848 25.04 32.9 91.1 16 4.2 39.5
15:40 1018 30.06 848 25.04 32.9 91.2 16 4.4 40
15:45 1018 30.06 847 25.01 32.7 90.9 17 5 41
15:50 1018 30.06 847 25.01 32.7 90.9 17 4.5 40.1
15:55 1018 30.06 847 25.01 33 91.4 16 4.2 39.6
16:00 1018 30.06 847 25.01 33.3 91.9 17 5.1 41.2
16:05 1018 30.06 847 25.01 33 91.3 16 4.1 39.4
16:10 1018 30.06 847 25.01 32.7 90.9 15 3.5 38.3
16:15 1018 30.06 847 25.01 32.7 90.8 16 4.2 39.6
16:20 1018 30.06 847 25.01 32.7 90.9 15 3.5 38.2
16:25 1018 30.06 847 25.01 33.1 91.5 15 3.3 38
16:30 1018 30.06 847 25.01 32.5 90.6 16 3.5 38.3
16:35 1018 30.06 847 25.01 33 91.4 15 3.6 38.5
16:40 1018 30.06 847 25.01 33.4 92.2 15 3.5 38.3
16:45 1018 30.06 847 25.01 33.2 91.7 14 2.9 37.2
16:50 1018 30.06 847 25.01 33 91.3 15 3.4 38.2
16:55 1018 30.06 847 25.01 33 91.3 15 2.9 37.3
17:00 1018 30.06 847 25.01 32.7 90.9 16 3.6 38.5
17:05 1018 30.06 847 25.01 33.4 92.1 15 3.2 37.7
17:10 1018 30.06 847 25.01 33.8 92.8 14 3.5 38.3
17:15 1018 30.06 847 25.01 33.8 92.9 15 3.7 38.7
17:20 1018 30.06 847 25.01 33.5 92.3 15 3.4 38.2
17:25 1018 30.06 847 25.01 32.4 90.3 15 2.9 37.3
17:30 1018 30.06 847 25.01 32.2 90 15 2.8 37.1
17:35 1018 30.06 847 25.01 32.3 90.2 16 3.7 38.6
17:40 1018 30.06 847 25.01 32.4 90.3 15 3.3 37.9
17:45 1018 30.06 847 25.01 31.3 88.4 20 5.9 42.6
17:50 1018 30.06 847 25.01 30.6 87.1 20 5.7 42.2
17:55 1018 30.06 847 25.01 30.7 87.2 20 5.3 41.5
18:00 1018 30.06 847 25.01 30.7 87.3 20 5.7 42.3
18:05 1018 30.06 847 25.01 30.5 86.8 20 5.7 42.2
18:10 1018 30.06 847 25.01 30.4 86.7 21 5.9 42.7
18:15 1017 30.03 847 25.01 30 86 22 6.6 43.9
18:20 1018 30.06 847 25.01 29.9 85.9 22 6.6 43.8
18:25 1017 30.03 847 25.01 30.1 86.2 22 6.3 43.4
18:30 1017 30.03 847 25.01 30 86 22 6.2 43.1
18:35 1017 30.03 847 25.01 29.8 85.6 23 7 44.6
18:40 1017 30.03 847 25.01 29.6 85.3 24 7.6 45.6
18:45 1017 30.03 847 25.01 29.5 85.2 24 7.2 44.9
18:50 1017 30.03 847 25.01 29.4 84.9 25 7.7 45.8
18:55 1017 30.03 847 25.01 29.1 84.3 25 7.6 45.6
19:00 1017 30.03 847 25.01 29 84.3 25 7.6 45.6
19:05 1017 30.03 847 25.01 28.9 84.1 24 6.9 44.4
19:10 1017 30.03 847 25.01 28.8 83.8 24 6.6 43.9
19:15 1017 30.03 847 25.01 28.4 83.2 26 7.2 45
19:20 1017 30.03 847 25.01 28.1 82.6 25 6.5 43.7
19:25 1017 30.03 846 24.98 28 82.4 25 6.5 43.6
19:30 1017 30.03 846 24.98 28 82.4 24 6 42.7
19:35 1017 30.03 847 25.01 28.1 82.6 24 5.8 42.5
19:40 1018 30.06 847 25.01 27.7 81.9 27 7.4 45.2
19:45 1018 30.06 847 25.01 26.9 80.4 27 6.8 44.2
19:50 1018 30.06 847 25.01 25.8 78.5 38 10.7 51.2
19:55 1018 30.06 847 25.01 22 71.6 55 12.6 54.8
20:00 1018 30.06 847 25.01 19.2 66.6 56 10.3 50.5
20:05 1018 30.06 847 25.01 21 69.7 44 8.3 46.9
20:10 1018 30.06 847 25.01 22.1 71.7 37 6.7 44.1
20:15 1018 30.06 847 25.01 23.2 73.7 35 6.9 44.4
20:20 1018 30.06 847 25.01 23.6 74.4 42 10.2 50.3
20:25 1018 30.06 848 25.04 23.1 73.6 46 10.9 51.6
20:30 1019 30.09 848 25.04 21.4 70.4 64 14.5 58.1
20:35 1019 30.09 848 25.04 19.7 67.5 63 12.5 54.6
20:40 1019 30.09 848 25.04 20 67.9 53 10.3 50.6
20:45 1019 30.09 848 25.04 21.2 70.1 47 9.6 49.3
20:50 1019 30.09 848 25.04 22.2 71.9 44 9.6 49.3
20:55 1019 30.09 849 25.07 23.1 73.5 48 11.7 53.1
21:00 1020 30.12 849 25.07 22.9 73.2 37 7.7 45.8
21:05 1020 30.12 849 25.07 24 75.2 32 6.7 44.1
21:10 1020 30.12 849 25.07 24.7 76.5 40 10.6 51
21:15 1020 30.12 849 25.07 23.9 74.9 41 9.9 49.8
21:20 1020 30.12 849 25.07 23.5 74.4 43 10.5 50.9
21:25 1020 30.12 850 25.1 23.3 74 45 10.8 51.5
21:30 1020 30.12 850 25.1 22.9 73.2 46 10.9 51.7
21:35 1020 30.12 850 25.1 22.8 73.1 40 8.7 47.7
21:40 1020 30.12 850 25.1 23.3 73.9 42 9.7 49.5
21:45 1020 30.12 849 25.07 23.4 74.1 34 6.9 44.4
21:50 1020 30.12 849 25.07 23.7 74.6 37 8.4 47.1
21:55 1020 30.12 849 25.07 23.5 74.2 35 7.5 45.5
22:00 1020 30.12 849 25.07 23.7 74.7 34 7.3 45.2
22:05 1020 30.12 849 25.07 23.8 74.9 32 6.3 43.3
22:10 1020 30.12 849 25.07 24 75.3 34 7.3 45.1
22:15 1020 30.12 849 25.07 24 75.3 33 7 44.5
22:20 1020 30.12 849 25.07 23.7 74.6 36 7.8 46
22:25 1020 30.12 849 25.07 23.3 74 35 7 44.7
22:30 1020 30.12 849 25.07 23.5 74.3 32 6.3 43.3
22:35 1020 30.12 849 25.07 23.5 74.3 40 9.5 49.1
22:40 1020 30.12 850 25.1 22.8 73.1 39 8.4 47.2
22:45 1020 30.12 849 25.07 22.5 72.6 43 9.5 49.2
22:50 1020 30.12 849 25.07 22.3 72.1 44 9.6 49.3
22:55 1020 30.12 849 25.07 22.1 71.8 47 10.4 50.7
23:00 1020 30.12 849 25.07 21.7 71 47 10 50
23:05 1020 30.12 849 25.07 21.8 71.2 40 7.9 46.2
23:10 1020 30.12 849 25.07 22.2 71.9 42 9 48.1
23:15 1020 30.12 849 25.07 21.7 71.1 46 9.9 49.8
23:20 1020 30.12 849 25.07 21.7 71.1 43 8.8 47.8
23:25 1020 30.12 849 25.07 22.1 71.8 43 9 48.3
23:30 1020 30.12 849 25.07 21.8 71.2 43 8.8 47.8
23:35 1020 30.12 850 25.1 21.9 71.4 42 8.4 47.2
23:40 1020 30.12 850 25.1 21.8 71.3 46 9.9 49.9
23:45 1020 30.12 850 25.1 21.4 70.4 48 9.9 49.9
23:50 1020 30.12 850 25.1 20.9 69.6 53 11.1 52
23:55 1020 30.12 849 25.07 20.2 68.4 51 10 50.1
24:00 1020 30.12 849 25.07 20.3 68.6 52 10.4 50.7